createdAt,value
2019-04-30T00:01:58.952Z,96102.36
2019-04-30T00:04:40.214Z,96093.43
2019-04-30T00:07:10.359Z,96102.50
2019-04-30T00:09:40.888Z,96102.69
2019-04-30T00:12:11.751Z,96102.34
2019-04-30T00:14:48.084Z,96104.11
2019-04-30T00:17:20.157Z,96102.48
2019-04-30T00:19:55.985Z,96094.72
2019-04-30T00:22:31.752Z,96095.53
2019-04-30T00:24:56.203Z,96087.49
2019-04-30T00:27:30.194Z,96087.45
2019-04-30T00:30:00.416Z,96082.34
2019-04-30T00:32:31.021Z,96090.00
2019-04-30T00:35:01.892Z,96089.88
2019-04-30T00:37:32.378Z,96084.22
2019-04-30T00:40:05.600Z,96090.81
2019-04-30T00:42:36.283Z,96081.33
2019-04-30T00:45:09.963Z,96075.20
2019-04-30T00:47:46.474Z,96073.30
2019-04-30T00:50:15.283Z,96082.38
2019-04-30T00:52:45.785Z,96077.57
2019-04-30T00:55:16.461Z,96074.81
2019-04-30T00:57:47.590Z,96082.95
2019-04-30T01:00:25.350Z,96079.77
2019-04-30T01:03:07.879Z,96079.48
2019-04-30T01:05:35.263Z,96078.73
2019-04-30T01:08:07.100Z,96074.69
2019-04-30T01:10:37.726Z,96074.40
2019-04-30T01:13:11.980Z,96081.28
2019-04-30T01:15:44.042Z,96074.84
2019-04-30T01:18:12.552Z,96065.77
2019-04-30T01:20:43.055Z,96066.11
2019-04-30T01:23:15.892Z,96061.03
2019-04-30T01:25:49.953Z,96065.25
2019-04-30T01:28:22.746Z,96068.67
2019-04-30T01:30:53.845Z,96067.78
2019-04-30T01:33:22.799Z,96066.41
2019-04-30T01:35:53.625Z,96063.56
2019-04-30T01:38:24.106Z,96062.10
2019-04-30T01:40:55.610Z,96072.16
2019-04-30T01:43:31.549Z,96069.73
2019-04-30T01:46:01.975Z,96068.09
2019-04-30T01:48:30.449Z,96071.16
2019-04-30T01:51:01.280Z,96075.09
2019-04-30T01:53:31.718Z,96064.84
2019-04-30T01:56:33.156Z,96067.13
2019-04-30T01:59:09.178Z,96070.25
2019-04-30T02:01:41.615Z,96069.06
2019-04-30T02:04:12.534Z,96076.02
2019-04-30T02:06:43.006Z,96084.88
2019-04-30T02:09:13.428Z,96086.22
2019-04-30T02:11:43.906Z,96087.58
2019-04-30T02:14:23.895Z,96081.76
2019-04-30T02:16:54.383Z,96084.31
2019-04-30T02:19:24.853Z,96088.19
2019-04-30T02:21:55.332Z,96080.09
2019-04-30T02:24:25.815Z,96082.65
2019-04-30T02:27:04.213Z,96076.81
2019-04-30T02:29:35.790Z,96076.20
2019-04-30T02:32:06.290Z,96080.52
2019-04-30T02:34:44.378Z,96075.33
2019-04-30T02:37:21.035Z,96074.60
2019-04-30T02:39:50.840Z,96073.09
2019-04-30T02:42:22.690Z,96065.77
2019-04-30T02:44:53.094Z,96071.32
2019-04-30T02:47:23.592Z,96065.61
2019-04-30T02:50:10.549Z,96068.58
2019-04-30T02:52:29.303Z,96064.36
2019-04-30T02:55:00.221Z,96069.75
2019-04-30T02:57:30.686Z,96076.55
2019-04-30T03:00:20.741Z,96075.56
2019-04-30T03:02:51.653Z,96075.42
2019-04-30T03:05:22.122Z,96075.55
2019-04-30T03:07:53.465Z,96080.77
2019-04-30T03:10:24.235Z,96066.31
2019-04-30T03:12:55.933Z,96076.77
2019-04-30T03:15:30.691Z,96075.19
2019-04-30T03:18:20.048Z,96081.77
2019-04-30T03:21:29.043Z,96078.83
2019-04-30T03:24:00.649Z,96080.08
2019-04-30T03:26:31.302Z,96087.95
2019-04-30T03:29:04.578Z,96087.95
2019-04-30T03:31:35.073Z,96092.30
2019-04-30T03:34:05.557Z,96087.00
2019-04-30T03:36:36.586Z,96090.38
2019-04-30T03:39:10.399Z,96093.48
2019-04-30T03:41:41.533Z,96093.77
2019-04-30T03:44:21.783Z,96088.77
2019-04-30T03:46:44.266Z,96094.22
2019-04-30T03:49:14.729Z,96101.47
2019-04-30T03:51:45.561Z,96102.50
2019-04-30T03:54:16.074Z,96100.45
2019-04-30T03:56:49.898Z,96099.41
2019-04-30T03:59:21.048Z,96092.64
2019-04-30T04:02:01.956Z,96097.76
2019-04-30T04:04:52.478Z,96101.44
2019-04-30T04:07:40.959Z,96106.23
2019-04-30T04:10:30.338Z,96111.90
2019-04-30T04:13:03.330Z,96115.47
2019-04-30T04:15:36.124Z,96114.14
2019-04-30T04:18:10.664Z,96115.21
2019-04-30T04:20:46.012Z,96117.56
2019-04-30T04:23:19.230Z,96124.05
2019-04-30T04:25:51.318Z,96127.39
2019-04-30T04:28:24.590Z,96117.94
2019-04-30T04:30:55.035Z,96127.59
2019-04-30T04:33:29.648Z,96129.42
2019-04-30T04:36:00.376Z,96130.11
2019-04-30T04:38:30.831Z,96125.45
2019-04-30T04:41:03.000Z,96132.53
2019-04-30T04:43:33.424Z,96135.10
2019-04-30T04:46:04.358Z,96140.65
2019-04-30T04:48:34.827Z,96132.41
2019-04-30T04:51:05.368Z,96124.16
2019-04-30T04:53:50.004Z,96130.61
2019-04-30T04:56:20.222Z,96131.08
2019-04-30T04:58:50.758Z,96130.84
2019-04-30T05:01:21.255Z,96128.35
2019-04-30T05:03:51.692Z,96131.64
2019-04-30T05:06:24.647Z,96132.23
2019-04-30T05:08:55.093Z,96129.14
2019-04-30T05:11:29.339Z,96130.47
2019-04-30T05:14:00.267Z,96126.28
2019-04-30T05:16:30.797Z,96134.13
2019-04-30T05:19:01.828Z,96125.67
2019-04-30T05:21:41.978Z,96133.30
2019-04-30T05:24:04.514Z,96131.10
2019-04-30T05:26:38.663Z,96132.03
2019-04-30T05:29:09.585Z,96125.52
2019-04-30T05:31:40.417Z,96126.19
2019-04-30T05:34:10.890Z,96132.15
2019-04-30T05:36:41.369Z,96131.70
2019-04-30T05:39:11.840Z,96133.62
2019-04-30T05:41:42.272Z,96134.84
2019-04-30T05:44:13.251Z,96134.63
2019-04-30T05:46:47.168Z,96140.41
2019-04-30T05:49:18.892Z,96145.53
2019-04-30T05:51:55.537Z,96154.41
2019-04-30T05:54:22.125Z,96144.23
2019-04-30T05:56:52.533Z,96144.81
2019-04-30T05:59:24.279Z,96146.68
2019-04-30T06:01:54.754Z,96140.56
2019-04-30T06:04:25.181Z,96142.13
2019-04-30T06:06:55.677Z,96143.40
2019-04-30T06:09:54.660Z,96137.73
2019-04-30T06:12:44.021Z,96138.91
2019-04-30T06:15:21.716Z,96136.41
2019-04-30T06:18:00.277Z,96137.47
2019-04-30T06:20:25.607Z,96133.37
2019-04-30T06:22:59.685Z,96135.92
2019-04-30T06:25:37.249Z,96139.84
2019-04-30T06:28:03.890Z,96132.91
2019-04-30T06:30:34.331Z,96130.91
2019-04-30T06:33:04.833Z,96133.27
2019-04-30T06:35:35.546Z,96136.23
2019-04-30T06:38:08.796Z,96132.69
2019-04-30T06:40:39.258Z,96137.50
2019-04-30T06:43:09.698Z,96139.02
2019-04-30T06:45:42.239Z,96141.91
2019-04-30T06:48:12.309Z,96139.68
2019-04-30T06:50:49.184Z,96141.23
2019-04-30T06:53:20.506Z,96138.59
2019-04-30T06:55:51.534Z,96140.56
2019-04-30T06:58:22.091Z,96147.73
2019-04-30T07:00:52.770Z,96138.64
2019-04-30T07:03:23.437Z,96136.17
2019-04-30T07:06:08.392Z,96140.44
2019-04-30T07:08:59.527Z,96142.09
2019-04-30T07:11:33.928Z,96146.80
2019-04-30T07:14:04.492Z,96146.46
2019-04-30T07:16:37.193Z,96143.02
2019-04-30T07:19:09.324Z,96150.81
2019-04-30T07:21:45.359Z,96141.11
2019-04-30T07:24:16.955Z,96144.55
2019-04-30T07:27:01.015Z,96143.02
2019-04-30T07:29:35.164Z,96144.73
2019-04-30T07:32:06.094Z,96145.27
2019-04-30T07:34:37.277Z,96136.16
2019-04-30T07:37:17.042Z,96148.31
2019-04-30T07:39:41.541Z,96146.70
2019-04-30T07:42:15.243Z,96146.86
2019-04-30T07:44:52.519Z,96138.48
2019-04-30T07:47:23.097Z,96147.72
2019-04-30T07:50:00.458Z,96145.85
2019-04-30T07:52:33.295Z,96145.89
2019-04-30T07:55:01.814Z,96144.68
2019-04-30T07:57:40.430Z,96150.54
2019-04-30T08:00:11.207Z,96149.61
2019-04-30T08:02:50.499Z,96150.49
2019-04-30T08:05:33.168Z,96147.69
2019-04-30T08:08:20.628Z,96151.43
2019-04-30T08:10:39.392Z,96159.80
2019-04-30T08:13:14.385Z,96162.46
2019-04-30T08:15:49.778Z,96161.66
2019-04-30T08:18:19.555Z,96161.13
2019-04-30T08:20:50.418Z,96167.47
2019-04-30T08:23:34.077Z,96172.72
2019-04-30T08:25:58.735Z,96173.91
2019-04-30T08:28:31.097Z,96173.74
2019-04-30T08:31:06.157Z,96175.77
2019-04-30T08:33:37.556Z,96172.72
2019-04-30T08:36:11.324Z,96173.93
2019-04-30T08:38:42.056Z,96175.36
2019-04-30T08:41:12.630Z,96179.20
2019-04-30T08:43:49.480Z,96170.65
2019-04-30T08:46:21.917Z,96167.19
2019-04-30T08:48:53.898Z,96162.63
2019-04-30T08:51:24.440Z,96163.76
2019-04-30T08:53:55.568Z,96173.52
2019-04-30T08:56:34.487Z,96170.34
2019-04-30T08:59:05.163Z,96176.08
2019-04-30T09:01:40.059Z,96167.42
2019-04-30T09:04:17.688Z,96175.64
2019-04-30T09:06:54.132Z,96176.50
2019-04-30T09:09:26.235Z,96177.23
2019-04-30T09:11:56.721Z,96179.06
2019-04-30T09:14:31.227Z,96180.75
2019-04-30T09:17:05.081Z,96165.78
2019-04-30T09:19:38.649Z,96167.44
2019-04-30T09:22:15.125Z,96165.38
2019-04-30T09:24:45.079Z,96163.52
2019-04-30T09:27:16.088Z,96171.79
2019-04-30T09:29:49.189Z,96169.67
2019-04-30T09:32:19.976Z,96169.63
2019-04-30T09:34:50.905Z,96175.06
2019-04-30T09:37:21.315Z,96171.12
2019-04-30T09:39:53.804Z,96171.86
2019-04-30T09:42:24.292Z,96170.73
2019-04-30T09:44:57.173Z,96170.98
2019-04-30T09:47:29.576Z,96175.55
2019-04-30T09:49:59.785Z,96168.22
2019-04-30T09:52:31.042Z,96174.19
2019-04-30T09:55:04.030Z,96174.77
2019-04-30T09:57:34.451Z,96173.24
2019-04-30T10:00:09.405Z,96173.28
2019-04-30T10:02:40.685Z,96164.78
2019-04-30T10:05:15.736Z,96173.46
2019-04-30T10:07:49.218Z,96166.84
2019-04-30T10:10:22.737Z,96164.06
2019-04-30T10:12:56.442Z,96158.39
2019-04-30T10:15:35.627Z,96163.05
2019-04-30T10:18:09.320Z,96155.24
2019-04-30T10:20:51.851Z,96149.17
2019-04-30T10:23:22.316Z,96146.83
2019-04-30T10:25:52.979Z,96151.91
2019-04-30T10:28:23.489Z,96150.18
2019-04-30T10:30:54.178Z,96148.57
2019-04-30T10:33:31.938Z,96146.73
2019-04-30T10:36:01.503Z,96154.87
2019-04-30T10:38:35.550Z,96145.70
2019-04-30T10:41:05.808Z,96148.95
2019-04-30T10:43:36.274Z,96148.07
2019-04-30T10:46:07.209Z,96146.91
2019-04-30T10:48:37.999Z,96139.38
2019-04-30T10:51:13.124Z,96143.99
2019-04-30T10:53:44.023Z,96149.09
2019-04-30T10:56:14.558Z,96158.34
2019-04-30T10:58:54.182Z,96147.13
2019-04-30T11:01:26.852Z,96152.72
2019-04-30T11:03:57.342Z,96154.12
2019-04-30T11:06:30.001Z,96150.05
2019-04-30T11:09:01.661Z,96146.25
2019-04-30T11:11:35.128Z,96139.31
2019-04-30T11:14:06.220Z,96141.03
2019-04-30T11:16:37.225Z,96154.24
2019-04-30T11:19:09.418Z,96138.64
2019-04-30T11:21:43.472Z,96144.13
2019-04-30T11:24:19.579Z,96141.64
2019-04-30T11:26:51.299Z,96143.69
2019-04-30T11:29:25.630Z,96146.73
2019-04-30T11:32:05.435Z,96144.44
2019-04-30T11:34:36.072Z,96135.10
2019-04-30T11:37:07.773Z,96137.71
2019-04-30T11:39:38.886Z,96134.17
2019-04-30T11:42:09.731Z,96139.35
2019-04-30T11:44:40.388Z,96139.15
2019-04-30T11:47:52.634Z,96133.97
2019-04-30T11:50:17.267Z,96131.91
2019-04-30T11:53:05.794Z,96133.95
2019-04-30T11:55:26.162Z,96129.09
2019-04-30T11:57:56.651Z,96118.17
2019-04-30T12:00:33.143Z,96127.38
2019-04-30T12:03:09.063Z,96121.46
2019-04-30T12:05:39.676Z,96125.61
2019-04-30T12:08:26.515Z,96128.62
2019-04-30T12:11:03.553Z,96129.06
2019-04-30T12:13:34.766Z,96129.93
2019-04-30T12:16:08.740Z,96127.41
2019-04-30T12:18:44.090Z,96135.21
2019-04-30T12:21:15.823Z,96134.52
2019-04-30T12:23:46.885Z,96123.64
2019-04-30T12:26:21.164Z,96123.16
2019-04-30T12:28:51.898Z,96121.64
2019-04-30T12:31:29.893Z,96118.89
2019-04-30T12:34:00.387Z,96119.36
2019-04-30T12:36:31.096Z,96122.27
2019-04-30T12:39:05.305Z,96125.17
2019-04-30T12:41:40.687Z,96117.03
2019-04-30T12:44:11.734Z,96119.28
2019-04-30T12:46:48.619Z,96123.52
2019-04-30T12:49:23.842Z,96120.45
2019-04-30T12:52:10.420Z,96121.84
2019-04-30T12:54:49.555Z,96111.16
2019-04-30T12:57:39.095Z,96107.30
2019-04-30T13:00:11.087Z,96110.62
2019-04-30T13:02:42.183Z,96109.03
2019-04-30T13:05:14.178Z,96101.29
2019-04-30T13:07:45.572Z,96096.59
2019-04-30T13:10:26.798Z,96089.17
2019-04-30T13:12:58.561Z,96095.42
2019-04-30T13:15:30.106Z,96087.72
2019-04-30T13:18:00.493Z,96096.33
2019-04-30T13:20:32.421Z,96088.78
2019-04-30T13:23:11.043Z,96085.64
2019-04-30T13:25:50.568Z,96087.58
2019-04-30T13:28:17.503Z,96080.14
2019-04-30T13:30:51.461Z,96078.03
2019-04-30T13:33:42.297Z,96080.47
2019-04-30T13:36:25.453Z,96079.31
2019-04-30T13:39:12.769Z,96077.56
2019-04-30T13:41:51.028Z,96088.51
2019-04-30T13:44:29.407Z,96078.39
2019-04-30T13:47:03.639Z,96090.46
2019-04-30T13:49:35.635Z,96094.62
2019-04-30T13:52:08.856Z,96076.61
2019-04-30T13:54:39.908Z,96079.98
2019-04-30T13:57:10.643Z,96083.93
2019-04-30T13:59:41.088Z,96088.50
2019-04-30T14:02:15.089Z,96091.97
2019-04-30T14:05:03.242Z,96088.92
2019-04-30T14:08:04.717Z,96085.48
2019-04-30T14:10:40.778Z,96084.55
2019-04-30T14:13:30.446Z,96079.45
2019-04-30T14:16:04.904Z,96083.60
2019-04-30T14:18:35.558Z,96076.59
2019-04-30T14:21:06.477Z,96080.06
2019-04-30T14:23:42.111Z,96068.69
2019-04-30T14:26:24.852Z,96075.64
2019-04-30T14:29:00.455Z,96081.06
2019-04-30T14:31:30.902Z,96071.72
2019-04-30T14:34:01.396Z,96073.69
2019-04-30T14:36:31.847Z,96065.80
2019-04-30T14:39:13.418Z,96069.56
2019-04-30T14:41:35.341Z,96063.87
2019-04-30T14:44:25.836Z,96060.78
2019-04-30T14:47:50.555Z,96070.59
2019-04-30T14:50:33.711Z,96067.78
2019-04-30T14:53:13.903Z,96057.48
2019-04-30T14:56:13.089Z,96073.59
2019-04-30T14:59:26.456Z,96070.89
2019-04-30T15:02:01.501Z,96066.44
2019-04-30T15:04:32.199Z,96063.14
2019-04-30T15:07:09.683Z,96062.86
2019-04-30T15:09:46.488Z,96059.83
2019-04-30T15:12:19.232Z,96058.41
2019-04-30T15:14:52.589Z,96069.02
2019-04-30T15:17:28.890Z,96062.89
2019-04-30T15:19:59.455Z,96057.20
2019-04-30T15:22:31.190Z,96053.50
2019-04-30T15:25:05.354Z,96055.91
2019-04-30T15:27:45.054Z,96064.29
2019-04-30T15:30:10.834Z,96060.85
2019-04-30T15:32:43.801Z,96060.87
2019-04-30T15:35:14.879Z,96062.97
2019-04-30T15:37:48.627Z,96057.00
2019-04-30T15:40:22.035Z,96054.81
2019-04-30T15:42:54.179Z,96055.23
2019-04-30T15:45:25.685Z,96050.35
2019-04-30T15:47:56.239Z,96059.16
2019-04-30T15:50:29.561Z,96049.80
2019-04-30T15:53:09.349Z,96054.01
2019-04-30T15:55:32.364Z,96051.12
2019-04-30T15:58:18.646Z,96051.99
2019-04-30T16:00:49.444Z,96049.67
2019-04-30T16:03:27.447Z,96050.48
2019-04-30T16:06:03.503Z,96044.96
2019-04-30T16:08:45.984Z,96052.80
2019-04-30T16:11:41.762Z,96047.23
2019-04-30T16:14:34.621Z,96041.49
2019-04-30T16:17:20.686Z,96040.95
2019-04-30T16:19:51.265Z,96054.45
2019-04-30T16:22:22.292Z,96048.09
2019-04-30T16:24:54.647Z,96043.46
2019-04-30T16:27:25.359Z,96045.06
2019-04-30T16:29:59.520Z,96044.86
2019-04-30T16:32:29.974Z,96046.55
2019-04-30T16:35:00.677Z,96041.62
2019-04-30T16:37:39.926Z,96035.50
2019-04-30T16:40:12.747Z,96035.09
2019-04-30T16:42:49.571Z,96035.73
2019-04-30T16:45:19.642Z,96037.83
2019-04-30T16:47:50.144Z,96035.85
2019-04-30T16:50:20.723Z,96033.55
2019-04-30T16:52:57.235Z,96034.16
2019-04-30T16:55:27.928Z,96032.05
2019-04-30T16:58:15.211Z,96032.06
2019-04-30T17:00:49.133Z,96029.43
2019-04-30T17:03:34.404Z,96026.00
2019-04-30T17:06:15.743Z,96031.19
2019-04-30T17:08:58.620Z,96031.73
2019-04-30T17:11:48.713Z,96032.31
2019-04-30T17:14:33.266Z,96033.16
2019-04-30T17:17:11.325Z,96033.73
2019-04-30T17:19:49.276Z,96037.52
2019-04-30T17:22:22.252Z,96030.57
2019-04-30T17:24:57.807Z,96035.16
2019-04-30T17:27:29.377Z,96032.77
2019-04-30T17:30:01.216Z,96031.41
2019-04-30T17:32:31.906Z,96021.77
2019-04-30T17:35:04.241Z,96029.83
2019-04-30T17:37:41.471Z,96027.41
2019-04-30T17:40:14.512Z,96025.82
2019-04-30T17:43:09.817Z,96030.92
2019-04-30T17:45:40.350Z,96027.69
2019-04-30T17:48:12.333Z,96032.48
2019-04-30T17:50:44.299Z,96031.39
2019-04-30T17:53:19.085Z,96023.30
2019-04-30T17:55:52.185Z,96023.03
2019-04-30T17:58:22.814Z,96023.77
2019-04-30T18:01:06.962Z,96023.43
2019-04-30T18:03:41.223Z,96027.38
2019-04-30T18:06:16.644Z,96036.38
2019-04-30T18:08:52.017Z,96034.72
2019-04-30T18:11:30.788Z,96034.88
2019-04-30T18:14:09.794Z,96047.11
2019-04-30T18:16:50.795Z,96040.61
2019-04-30T18:19:35.336Z,96042.67
2019-04-30T18:22:23.096Z,96040.97
2019-04-30T18:25:23.362Z,96042.22
2019-04-30T18:27:59.493Z,96035.14
2019-04-30T18:30:36.088Z,96032.91
2019-04-30T18:33:09.682Z,96050.46
2019-04-30T18:35:41.225Z,96045.86
2019-04-30T18:38:17.805Z,96047.38
2019-04-30T18:40:59.446Z,96047.26
2019-04-30T18:43:30.660Z,96047.18
2019-04-30T18:46:04.842Z,96049.13
2019-04-30T18:48:39.357Z,96050.11
2019-04-30T18:51:32.890Z,96057.77
2019-04-30T18:54:02.845Z,96060.06
2019-04-30T18:56:34.725Z,96060.94
2019-04-30T18:59:12.087Z,96057.09
2019-04-30T19:01:47.472Z,96056.47
2019-04-30T19:04:44.506Z,96054.75
2019-04-30T19:07:40.681Z,96051.70
2019-04-30T19:10:34.202Z,96060.13
2019-04-30T19:13:27.484Z,96061.59
2019-04-30T19:16:23.041Z,96060.37
2019-04-30T19:19:14.809Z,96063.16
2019-04-30T19:21:48.658Z,96064.34
2019-04-30T19:24:21.304Z,96065.02
2019-04-30T19:26:55.281Z,96062.48
2019-04-30T19:29:27.348Z,96066.87
2019-04-30T19:32:09.444Z,96070.23
2019-04-30T19:34:43.519Z,96072.24
2019-04-30T19:37:21.178Z,96067.31
2019-04-30T19:39:53.428Z,96066.38
2019-04-30T19:42:24.418Z,96061.98
2019-04-30T19:44:59.744Z,96065.33
2019-04-30T19:47:30.830Z,96070.50
2019-04-30T19:50:01.759Z,96071.91
2019-04-30T19:52:34.536Z,96066.08
2019-04-30T19:55:05.522Z,96066.45
2019-04-30T19:57:43.566Z,96071.00
2019-04-30T20:00:11.687Z,96068.72
2019-04-30T20:03:08.915Z,96069.66
2019-04-30T20:05:44.697Z,96077.20
2019-04-30T20:08:22.519Z,96074.33
2019-04-30T20:10:59.392Z,96072.59
2019-04-30T20:13:37.011Z,96076.44
2019-04-30T20:16:09.784Z,96076.87
2019-04-30T20:18:50.429Z,96073.56
2019-04-30T20:21:45.334Z,96074.80
2019-04-30T20:24:05.462Z,96073.56
2019-04-30T20:26:36.193Z,96075.61
2019-04-30T20:29:25.989Z,96068.16
2019-04-30T20:31:59.002Z,96070.75
2019-04-30T20:34:31.356Z,96069.94
2019-04-30T20:37:04.381Z,96070.58
2019-04-30T20:39:42.182Z,96071.83
2019-04-30T20:42:18.351Z,96070.81
2019-04-30T20:44:53.538Z,96069.64
2019-04-30T20:47:24.702Z,96061.62
2019-04-30T20:49:57.282Z,96071.41
2019-04-30T20:52:32.420Z,96060.92
2019-04-30T20:55:04.091Z,96063.44
2019-04-30T20:57:43.159Z,96061.64
2019-04-30T21:00:17.876Z,96059.98
2019-04-30T21:02:49.713Z,96054.39
2019-04-30T21:05:23.093Z,96058.22
2019-04-30T21:07:59.096Z,96055.16
2019-04-30T21:10:29.870Z,96053.17
2019-04-30T21:13:11.333Z,96052.55
2019-04-30T21:15:49.465Z,96051.38
2019-04-30T21:18:19.827Z,96056.48
2019-04-30T21:20:50.359Z,96056.66
2019-04-30T21:23:24.744Z,96059.75
2019-04-30T21:26:03.095Z,96059.84
2019-04-30T21:28:33.541Z,96058.45
2019-04-30T21:31:22.876Z,96062.13
2019-04-30T21:34:01.149Z,96064.92
2019-04-30T21:36:34.083Z,96057.36
2019-04-30T21:39:08.839Z,96059.08
2019-04-30T21:41:39.594Z,96063.71
2019-04-30T21:44:10.345Z,96059.95
2019-04-30T21:46:40.800Z,96052.82
2019-04-30T21:49:11.261Z,96053.26
2019-04-30T21:52:00.946Z,96056.16
2019-04-30T21:54:38.774Z,96055.19
2019-04-30T21:57:10.252Z,96045.50
2019-04-30T21:59:41.798Z,96048.88
2019-04-30T22:02:12.431Z,96050.20
2019-04-30T22:04:46.302Z,96047.85
2019-04-30T22:07:19.496Z,96047.48
2019-04-30T22:09:53.141Z,96044.92
2019-04-30T22:12:31.202Z,96046.16
2019-04-30T22:15:04.392Z,96039.77
2019-04-30T22:17:40.717Z,96037.87
2019-04-30T22:20:19.133Z,96042.20
2019-04-30T22:22:50.939Z,96044.77
2019-04-30T22:25:29.192Z,96042.20
2019-04-30T22:28:07.402Z,96044.25
2019-04-30T22:30:44.160Z,96044.77
2019-04-30T22:33:15.129Z,96037.08
2019-04-30T22:35:58.860Z,96033.62
2019-04-30T22:38:32.550Z,96037.29
2019-04-30T22:41:05.648Z,96042.58
2019-04-30T22:43:35.252Z,96042.12
2019-04-30T22:46:11.672Z,96039.85
2019-04-30T22:48:42.186Z,96041.52
2019-04-30T22:51:19.393Z,96039.93
2019-04-30T22:53:50.272Z,96030.21
2019-04-30T22:56:21.144Z,96030.21
2019-04-30T22:58:53.339Z,96033.45
2019-04-30T23:01:41.204Z,96040.88
2019-04-30T23:04:15.717Z,96037.42
2019-04-30T23:06:55.250Z,96034.63
2019-04-30T23:09:30.061Z,96038.81
2019-04-30T23:12:05.134Z,96029.56
2019-04-30T23:14:35.683Z,96032.03
2019-04-30T23:17:06.615Z,96034.25
2019-04-30T23:19:37.025Z,96030.67
2019-04-30T23:22:07.498Z,96031.69
2019-04-30T23:24:42.242Z,96023.08
2019-04-30T23:27:22.467Z,96020.13
2019-04-30T23:29:48.324Z,96018.30
2019-04-30T23:32:19.517Z,96008.75
2019-04-30T23:34:53.316Z,96019.78
2019-04-30T23:37:26.164Z,96021.83
2019-04-30T23:39:57.190Z,96013.52
2019-04-30T23:42:30.500Z,96011.59
2019-04-30T23:45:05.298Z,96016.31
2019-04-30T23:47:40.204Z,96003.83
2019-04-30T23:50:10.625Z,96005.45
2019-04-30T23:52:48.978Z,96006.08
2019-04-30T23:55:19.485Z,95998.66
2019-04-30T23:57:50.014Z,96003.86
